Time,TemperatureF,DewpointF,PressureIn,WindDirection,WindDirectionDegrees,WindSpeedMPH,WindSpeedGustMPH,Humidity,HourlyPrecipIn,Conditions,Clouds,dailyrainin,SoftwareType,DateUTC
2013-07-20 00:02:00,54.0,53.0,29.72,North,358,0.0,0.0,97,0.00,,,0.16,,2013-07-20 05:02:00,
2013-07-20 00:12:00,54.0,53.0,29.72,North,358,0.0,0.0,97,0.00,,,0.16,,2013-07-20 05:12:00,
2013-07-20 00:22:00,55.0,54.0,29.72,North,358,0.0,0.0,98,0.00,,,0.16,,2013-07-20 05:22:00,
2013-07-20 00:32:00,55.0,54.0,29.72,North,358,0.0,0.0,98,0.00,,,0.16,,2013-07-20 05:32:00,
2013-07-20 00:52:00,56.0,55.0,29.72,North,358,0.0,0.0,98,0.00,,,0.16,,2013-07-20 05:52:00,
2013-07-20 01:01:00,56.0,55.0,29.72,North,356,0.0,0.0,98,0.00,,,0.16,,2013-07-20 06:01:00,
2013-07-20 01:11:00,56.0,55.0,29.72,North,356,0.0,0.0,98,0.00,,,0.16,,2013-07-20 06:11:00,
2013-07-20 01:21:00,56.0,55.0,29.72,North,357,0.0,0.0,98,0.00,,,0.16,,2013-07-20 06:21:00,
2013-07-20 01:32:00,55.0,54.0,29.73,North,356,0.0,0.0,98,0.00,,,0.16,,2013-07-20 06:32:00,
2013-07-20 01:43:00,55.0,54.0,29.73,North,356,0.0,0.0,98,0.00,,,0.16,,2013-07-20 06:43:00,
2013-07-20 01:52:00,55.0,54.0,29.73,North,356,0.0,0.0,98,0.00,,,0.16,,2013-07-20 06:52:00,
2013-07-20 02:01:00,55.0,54.0,29.73,NNW,340,0.0,1.0,98,0.00,,,0.16,,2013-07-20 07:01:00,
2013-07-20 02:12:00,55.0,54.0,29.73,NNW,340,0.0,1.0,98,0.00,,,0.16,,2013-07-20 07:12:00,
2013-07-20 02:22:00,56.0,55.0,29.73,NNW,341,0.0,0.0,98,0.00,,,0.16,,2013-07-20 07:22:00,
2013-07-20 02:33:00,56.0,55.0,29.73,NNW,340,0.0,0.0,98,0.00,,,0.16,,2013-07-20 07:33:00,
2013-07-20 02:44:00,56.0,55.0,29.73,NNW,340,0.0,0.0,98,0.00,,,0.16,,2013-07-20 07:44:00,
2013-07-20 02:54:00,56.0,55.0,29.73,NNW,340,0.0,0.0,98,0.00,,,0.16,,2013-07-20 07:54:00,
2013-07-20 03:01:00,55.0,54.0,29.73,NNW,340,0.0,0.0,98,0.00,,,0.16,,2013-07-20 08:01:00,
2013-07-20 03:11:00,55.0,54.0,29.73,NNW,340,0.0,0.0,98,0.00,,,0.16,,2013-07-20 08:11:00,
2013-07-20 03:22:00,55.0,54.0,29.74,NNW,340,0.0,0.0,98,0.00,,,0.16,,2013-07-20 08:22:00,
2013-07-20 03:32:00,55.0,54.0,29.74,NNW,340,0.0,0.0,98,0.00,,,0.16,,2013-07-20 08:32:00,
2013-07-20 03:44:00,55.0,54.0,29.74,NNW,340,0.0,0.0,98,0.00,,,0.16,,2013-07-20 08:44:00,
2013-07-20 03:52:00,54.0,53.0,29.74,NNW,340,0.0,0.0,98,0.00,,,0.16,,2013-07-20 08:52:00,
2013-07-20 04:02:00,54.0,53.0,29.75,SW,226,0.0,1.0,98,0.00,,,0.16,,2013-07-20 09:02:00,
2013-07-20 04:11:00,54.0,53.0,29.75,SW,226,0.0,1.0,98,0.00,,,0.16,,2013-07-20 09:11:00,
2013-07-20 04:22:00,54.0,53.0,29.75,SW,225,0.0,0.0,98,0.00,,,0.16,,2013-07-20 09:22:00,
2013-07-20 04:33:00,54.0,53.0,29.76,SW,226,0.0,0.0,98,0.00,,,0.16,,2013-07-20 09:33:00,
2013-07-20 04:43:00,54.0,53.0,29.76,SW,226,0.0,0.0,98,0.00,,,0.16,,2013-07-20 09:43:00,
2013-07-20 04:53:00,54.0,54.0,29.76,SW,226,0.0,0.0,99,0.00,,,0.16,,2013-07-20 09:53:00,
2013-07-20 05:01:00,54.0,54.0,29.77,SSE,160,0.0,1.0,99,0.00,,,0.16,,2013-07-20 10:01:00,
2013-07-20 05:11:00,54.0,54.0,29.77,SSE,160,0.0,1.0,99,0.00,,,0.16,,2013-07-20 10:11:00,
2013-07-20 05:22:00,54.0,54.0,29.78,SSE,160,0.0,0.0,99,0.00,,,0.16,,2013-07-20 10:22:00,
2013-07-20 05:32:00,53.0,53.0,29.79,SSE,161,0.0,0.0,99,0.00,,,0.11,,2013-07-20 10:32:00,
2013-07-20 05:42:00,53.0,53.0,29.79,SSE,161,0.0,0.0,99,0.00,,,0.11,,2013-07-20 10:42:00,
2013-07-20 05:52:00,53.0,53.0,29.80,SSE,162,0.0,0.0,99,0.00,,,0.11,,2013-07-20 10:52:00,
2013-07-20 06:01:00,53.0,53.0,29.80,SSE,161,0.0,0.0,99,0.00,,,0.11,,2013-07-20 11:01:00,
2013-07-20 06:11:00,53.0,53.0,29.80,SSE,161,0.0,0.0,99,0.00,,,0.11,,2013-07-20 11:11:00,
2013-07-20 06:22:00,52.0,52.0,29.80,SSE,160,0.0,0.0,99,0.00,,,0.11,,2013-07-20 11:22:00,
2013-07-20 06:32:00,52.0,52.0,29.82,SSE,160,0.0,0.0,99,0.00,,,0.11,,2013-07-20 11:32:00,
2013-07-20 06:43:00,52.0,52.0,29.82,SSE,160,0.0,0.0,99,0.00,,,0.11,,2013-07-20 11:43:00,
2013-07-20 06:52:00,53.0,53.0,29.83,SW,226,0.0,1.0,99,0.00,,,0.11,,2013-07-20 11:52:00,
2013-07-20 07:01:00,53.0,53.0,29.83,SW,226,0.0,0.0,99,0.00,,,0.11,,2013-07-20 12:01:00,
2013-07-20 07:11:00,53.0,53.0,29.83,SW,226,0.0,0.0,99,0.00,,,0.11,,2013-07-20 12:11:00,
2013-07-20 07:22:00,53.0,53.0,29.83,SSE,163,0.0,0.0,99,0.00,,,0.11,,2013-07-20 12:22:00,
2013-07-20 07:32:00,53.0,53.0,29.84,SSE,163,0.0,0.0,99,0.00,,,0.11,,2013-07-20 12:32:00,
2013-07-20 07:52:00,54.0,54.0,29.85,West,263,0.0,1.0,99,0.00,,,0.11,,2013-07-20 12:52:00,
2013-07-20 08:01:00,55.0,54.0,29.86,SSE,158,0.0,1.0,96,0.00,,,0.11,,2013-07-20 13:01:00,
2013-07-20 08:11:00,55.0,54.0,29.86,SSE,158,0.0,1.0,96,0.00,,,0.11,,2013-07-20 13:11:00,
2013-07-20 08:22:00,57.0,53.0,29.86,SE,146,0.0,4.0,88,0.00,,,0.11,,2013-07-20 13:22:00,
2013-07-20 08:32:00,58.0,53.0,29.86,West,276,0.0,2.0,83,0.00,,,0.10,,2013-07-20 13:32:00,
2013-07-20 08:43:00,58.0,53.0,29.86,West,276,0.0,2.0,83,0.00,,,0.10,,2013-07-20 13:43:00,
2013-07-20 08:53:00,60.0,54.0,29.87,West,263,0.0,3.0,82,0.00,,,0.10,,2013-07-20 13:53:00,
2013-07-20 09:02:00,62.0,53.0,29.87,West,277,0.0,3.0,73,0.00,,,0.10,,2013-07-20 14:02:00,
2013-07-20 09:11:00,62.0,53.0,29.87,West,277,0.0,3.0,73,0.00,,,0.10,,2013-07-20 14:11:00,
2013-07-20 09:22:00,65.0,55.0,29.88,SSE,147,0.0,2.0,69,0.00,,,0.10,,2013-07-20 14:22:00,
2013-07-20 09:32:00,65.0,53.0,29.88,ESE,118,1.0,3.0,65,0.00,,,0.10,,2013-07-20 14:32:00,
2013-07-20 09:43:00,65.0,53.0,29.88,ESE,118,1.0,3.0,65,0.00,,,0.10,,2013-07-20 14:43:00,
2013-07-20 09:53:00,66.0,52.0,29.89,SW,222,0.0,3.0,60,0.00,,,0.10,,2013-07-20 14:53:00,
2013-07-20 10:01:00,67.0,52.0,29.89,SSE,148,1.0,3.0,58,0.00,,,0.10,,2013-07-20 15:01:00,
2013-07-20 10:11:00,67.0,52.0,29.89,SSE,148,1.0,3.0,58,0.00,,,0.10,,2013-07-20 15:11:00,
2013-07-20 10:33:00,68.0,54.0,29.91,SW,229,1.0,5.0,62,0.00,,,0.10,,2013-07-20 15:33:00,
2013-07-20 10:44:00,68.0,54.0,29.91,SW,229,1.0,5.0,62,0.00,,,0.10,,2013-07-20 15:44:00,
2013-07-20 10:53:00,68.0,52.0,29.91,WSW,253,1.0,3.0,56,0.00,,,0.10,,2013-07-20 15:53:00,
2013-07-20 11:01:00,70.0,53.0,29.91,NE,53,0.0,4.0,55,0.00,,,0.10,,2013-07-20 16:01:00,
2013-07-20 11:11:00,70.0,53.0,29.91,NE,53,0.0,4.0,55,0.00,,,0.10,,2013-07-20 16:11:00,
2013-07-20 11:22:00,70.0,54.0,29.91,North,349,0.0,2.0,56,0.00,,,0.10,,2013-07-20 16:22:00,
2013-07-20 11:43:00,70.0,53.0,29.91,East,97,0.0,2.0,55,0.00,,,0.10,,2013-07-20 16:43:00,
2013-07-20 11:52:00,70.0,50.0,29.91,SSW,210,1.0,4.0,49,0.00,,,0.10,,2013-07-20 16:52:00,
2013-07-20 12:02:00,72.0,53.0,29.91,South,173,0.0,3.0,52,0.00,,,0.10,,2013-07-20 17:02:00,
2013-07-20 12:11:00,72.0,53.0,29.91,South,173,0.0,3.0,52,0.00,,,0.10,,2013-07-20 17:11:00,
2013-07-20 12:32:00,70.0,53.0,29.91,SSE,164,0.0,2.0,55,0.00,,,0.00,,2013-07-20 17:32:00,
2013-07-20 12:43:00,70.0,53.0,29.91,SSE,164,0.0,2.0,55,0.00,,,0.00,,2013-07-20 17:43:00,
2013-07-20 12:53:00,71.0,51.0,29.91,SE,131,0.0,3.0,50,0.00,,,0.00,,2013-07-20 17:53:00,
2013-07-20 13:24:00,72.0,50.0,29.90,ENE,57,0.0,5.0,46,0.00,,,0.00,,2013-07-20 18:24:00,
2013-07-20 13:59:00,73.0,52.0,29.90,SSE,159,1.0,4.0,47,0.00,,,0.00,,2013-07-20 18:59:00,
2013-07-20 14:05:00,74.0,52.0,29.90,NNE,16,1.0,4.0,46,0.00,,,0.00,,2013-07-20 19:05:00,
2013-07-20 14:15:00,74.0,52.0,29.90,NNE,16,1.0,4.0,46,0.00,,,0.00,,2013-07-20 19:15:00,
2013-07-20 14:26:00,73.0,49.0,29.90,ENE,57,1.0,3.0,43,0.00,,,0.00,,2013-07-20 19:26:00,
2013-07-20 14:34:00,73.0,49.0,29.90,West,268,1.0,5.0,42,0.00,,,0.00,,2013-07-20 19:34:00,
2013-07-20 14:43:00,73.0,49.0,29.90,West,268,1.0,5.0,42,0.00,,,0.00,,2013-07-20 19:43:00,
2013-07-20 14:56:00,73.0,49.0,29.90,SE,132,0.0,3.0,43,0.00,,,0.00,,2013-07-20 19:56:00,
2013-07-20 15:06:00,74.0,51.0,29.91,SSW,210,0.0,3.0,44,0.00,,,0.00,,2013-07-20 20:06:00,
2013-07-20 15:14:00,74.0,51.0,29.91,SSW,210,0.0,3.0,44,0.00,,,0.00,,2013-07-20 20:14:00,
2013-07-20 15:23:00,74.0,52.0,29.90,East,85,0.0,3.0,46,0.00,,,0.00,,2013-07-20 20:23:00,
2013-07-20 15:33:00,73.0,50.0,29.91,North,5,1.0,3.0,44,0.00,,,0.00,,2013-07-20 20:33:00,
2013-07-20 15:45:00,73.0,50.0,29.91,North,5,1.0,3.0,44,0.00,,,0.00,,2013-07-20 20:45:00,
2013-07-20 15:57:00,73.0,51.0,29.91,SSE,161,0.0,2.0,46,0.00,,,0.00,,2013-07-20 20:57:00,
2013-07-20 16:04:00,72.0,50.0,29.91,East,98,0.0,5.0,46,0.00,,,0.00,,2013-07-20 21:04:00,
2013-07-20 16:14:00,72.0,50.0,29.91,East,98,0.0,5.0,46,0.00,,,0.00,,2013-07-20 21:14:00,
2013-07-20 16:27:00,72.0,51.0,29.91,West,269,0.0,3.0,47,0.00,,,0.00,,2013-07-20 21:27:00,
2013-07-20 16:34:00,72.0,53.0,29.91,WNW,290,0.0,2.0,51,0.00,,,0.00,,2013-07-20 21:34:00,
2013-07-20 16:44:00,72.0,53.0,29.91,WNW,290,0.0,2.0,51,0.00,,,0.00,,2013-07-20 21:44:00,
2013-07-20 17:05:00,72.0,52.0,29.91,WSW,252,0.0,4.0,49,0.00,,,0.00,,2013-07-20 22:05:00,
2013-07-20 17:16:00,72.0,52.0,29.91,WSW,252,0.0,4.0,49,0.00,,,0.00,,2013-07-20 22:16:00,
2013-07-20 17:25:00,73.0,53.0,29.91,SSW,210,0.0,2.0,49,0.00,,,0.00,,2013-07-20 22:25:00,
2013-07-20 17:34:00,73.0,54.0,29.90,NNE,21,0.0,3.0,51,0.00,,,0.00,,2013-07-20 22:34:00,
2013-07-20 17:57:00,72.0,50.0,29.90,SSE,148,0.0,1.0,46,0.00,,,0.00,,2013-07-20 22:57:00,
2013-07-20 18:04:00,69.0,49.0,29.89,East,86,0.0,1.0,49,0.00,,,0.00,,2013-07-20 23:04:00,
2013-07-20 18:17:00,69.0,49.0,29.89,East,86,0.0,1.0,49,0.00,,,0.00,,2013-07-20 23:17:00,
2013-07-20 18:27:00,69.0,50.0,29.89,SE,131,0.0,3.0,51,0.00,,,0.00,,2013-07-20 23:27:00,
2013-07-20 19:16:00,65.0,53.0,29.90,East,84,0.0,2.0,66,0.00,,,0.00,,2013-07-21 00:16:00,
2013-07-20 19:23:00,64.0,53.0,29.91,SE,142,1.0,8.0,68,0.00,,,0.00,,2013-07-21 00:23:00,
2013-07-20 19:43:00,62.0,53.0,29.91,East,79,0.0,2.0,72,0.00,,,0.00,,2013-07-21 00:43:00,
2013-07-20 19:56:00,62.0,53.0,29.91,East,79,0.0,2.0,72,0.00,,,0.00,,2013-07-21 00:56:00,
2013-07-20 20:06:00,60.0,52.0,29.93,ESE,116,0.0,6.0,76,0.00,,,0.00,,2013-07-21 01:06:00,
2013-07-20 20:12:00,60.0,52.0,29.93,ESE,116,0.0,6.0,76,0.00,,,0.00,,2013-07-21 01:12:00,
2013-07-20 20:27:00,59.0,52.0,29.92,SE,131,0.0,1.0,79,0.00,,,0.00,,2013-07-21 01:27:00,
2013-07-20 20:36:00,57.0,51.0,29.93,ESE,110,0.0,0.0,81,0.00,,,0.00,,2013-07-21 01:36:00,
2013-07-20 20:45:00,-999.0,-99.9,29.93,ESE,110,0.0,0.0,-999,-99.99,,,-99.99,,2013-07-21 01:45:00,
2013-07-20 20:56:00,56.0,51.0,29.94,SE,128,0.0,0.0,83,0.00,,,0.00,,2013-07-21 01:56:00,
2013-07-20 21:05:00,55.0,51.0,29.95,SE,128,0.0,0.0,87,0.00,,,0.00,,2013-07-21 02:05:00,
2013-07-20 21:16:00,55.0,51.0,29.95,SE,128,0.0,0.0,87,0.00,,,0.00,,2013-07-21 02:16:00,
2013-07-20 21:26:00,53.0,50.0,29.96,SE,129,0.0,0.0,89,0.00,,,0.00,,2013-07-21 02:26:00,
2013-07-20 21:36:00,52.0,49.0,29.97,SE,128,0.0,0.0,90,0.00,,,0.00,,2013-07-21 02:36:00,
2013-07-20 21:44:00,52.0,49.0,29.97,SE,128,0.0,0.0,90,0.00,,,0.00,,2013-07-21 02:44:00,
2013-07-20 21:58:00,51.0,49.0,29.98,SE,128,0.0,0.0,92,0.00,,,0.00,,2013-07-21 02:58:00,
2013-07-20 22:04:00,50.0,48.0,29.99,SE,128,0.0,0.0,93,0.00,,,0.00,,2013-07-21 03:04:00,
2013-07-20 22:14:00,50.0,48.0,29.99,SE,128,0.0,0.0,93,0.00,,,0.00,,2013-07-21 03:14:00,
2013-07-20 22:25:00,49.0,47.0,29.99,SE,128,0.0,0.0,94,0.00,,,0.00,,2013-07-21 03:25:00,
2013-07-20 22:35:00,49.0,48.0,30.00,SE,128,0.0,0.0,95,0.00,,,0.00,,2013-07-21 03:35:00,
2013-07-20 22:44:00,49.0,48.0,30.00,SE,128,0.0,0.0,95,0.00,,,0.00,,2013-07-21 03:44:00,
2013-07-20 23:00:00,48.0,47.0,30.00,SE,128,0.0,0.0,95,0.00,,,0.00,,2013-07-21 04:00:00,
2013-07-20 23:01:00,47.0,46.0,30.00,SE,128,0.0,0.0,95,0.00,,,0.00,,2013-07-21 04:01:00,
2013-07-20 23:11:00,47.0,46.0,30.00,SE,128,0.0,0.0,95,0.00,,,0.00,,2013-07-21 04:11:00,
2013-07-20 23:22:00,47.0,46.0,30.00,SE,128,0.0,0.0,96,0.00,,,0.00,,2013-07-21 04:22:00,
2013-07-20 23:32:00,46.0,45.0,30.01,SE,129,0.0,0.0,96,0.00,,,0.00,,2013-07-21 04:32:00,
2013-07-20 23:43:00,46.0,45.0,30.01,SE,129,0.0,0.0,96,0.00,,,0.00,,2013-07-21 04:43:00,
2013-07-20 23:53:00,46.0,45.0,30.01,SE,129,0.0,0.0,96,0.00,,,0.00,,2013-07-21 04:53:00,